Time;durP1;ratioP1;P1;durP2;ratioP2;P2;SDS_P1;SDS_P2;PMS_P1;PMS_P2;Temp;Humidity;BMP_temperature;BMP_pressure;BME280_temperature;BME280_humidity;BME280_pressure;Samples;Min_cycle;Max_cycle;Signal;HPM_P1;HPM_P2
2022/11/20 00:01:17;;;;;;;;;;;8.70;99.90;;;;;;5071901;28;19917;-68
2022/11/20 00:03:42;;;;;;;;;;;8.80;99.90;;;;;;5069019;28;20025;-68
2022/11/20 00:06:10;;;;;;;;;;;8.70;99.90;;;;;;5069053;28;20383;-68
2022/11/20 00:08:36;;;;;;;;;;;8.70;99.90;;;;;;5068721;28;19931;-68
2022/11/20 00:11:09;;;;;;;;;;;8.70;99.90;;;;;;5068372;28;19917;-68
2022/11/20 00:13:34;;;;;;;;;;;8.70;99.90;;;;;;5066195;28;19999;-69
2022/11/20 00:16:01;;;;;;;;;;;8.70;99.90;;;;;;5068605;28;20389;-68
2022/11/20 00:18:27;;;;;;;;;;;8.70;99.90;;;;;;5066966;28;19993;-68
2022/11/20 00:20:56;;;;;;;;;;;8.80;99.90;;;;;;5068345;28;19916;-69
2022/11/20 00:23:21;;;;;;;;;;;8.70;99.90;;;;;;5066834;28;19913;-68
2022/11/20 00:25:47;;;;;;;;;;;8.70;99.90;;;;;;5068252;28;19946;-68
2022/11/20 00:28:18;;;;;;;;;;;8.70;99.90;;;;;;5072188;28;19925;-68
2022/11/20 00:30:47;;;;;;;;;;;8.60;99.90;;;;;;5080540;28;19916;-68
2022/11/20 00:33:13;;;;;;;;;;;8.60;99.90;;;;;;5070491;28;19934;-68
2022/11/20 00:35:39;;;;;;;;;;;8.60;99.90;;;;;;5066959;28;19920;-69
2022/11/20 00:38:04;;;;;;;;;;;8.60;99.90;;;;;;5072886;28;19920;-68
2022/11/20 00:40:30;;;;;;;;;;;8.60;99.90;;;;;;5078290;28;20387;-68
2022/11/20 00:42:56;;;;;;;;;;;8.60;99.90;;;;;;5081681;28;20286;-69
2022/11/20 00:45:22;;;;;;;;;;;8.60;99.90;;;;;;5079638;28;19912;-69
2022/11/20 00:47:48;;;;;;;;;;;8.70;99.90;;;;;;5080528;28;19939;-69
2022/11/20 00:50:26;;;;;;;;;;;;;;;;;;;;;
2022/11/20 00:52:52;;;;;;;;;;;8.60;99.90;;;;;;5080701;28;19997;-68
2022/11/20 00:55:18;;;;;;;;;;;8.60;99.90;;;;;;5078538;28;19963;-69
2022/11/20 00:57:43;;;;;;;;;;;8.50;99.90;;;;;;5079737;28;19962;-69
2022/11/20 01:00:09;;;;;;;;;;;8.50;99.90;;;;;;5078671;28;19920;-69
2022/11/20 01:02:35;;;;;;;;;;;8.40;99.90;;;;;;5081155;28;20301;-69
2022/11/20 01:05:02;;;;;;;;;;;8.30;99.90;;;;;;5079756;28;19913;-69
2022/11/20 01:07:27;;;;;;;;;;;8.40;99.90;;;;;;5084157;28;19909;-69
2022/11/20 01:09:53;;;;;;;;;;;8.40;99.90;;;;;;5083022;28;19979;-70
2022/11/20 01:12:19;;;;;;;;;;;8.40;99.90;;;;;;5077069;28;20554;-69
2022/11/20 01:14:50;;;;;;;;;;;8.40;99.90;;;;;;5074583;28;20362;-68
2022/11/20 01:17:16;;;;;;;;;;;8.50;99.90;;;;;;5065831;28;19951;-69
2022/11/20 01:19:42;;;;;;;;;;;8.40;99.90;;;;;;5064400;28;19916;-69
2022/11/20 01:22:07;;;;;;;;;;;8.50;99.90;;;;;;5071197;28;20000;-70
2022/11/20 01:24:33;;;;;;;;;;;8.40;99.90;;;;;;5070808;28;19924;-70
2022/11/20 01:26:59;;;;;;;;;;;8.40;99.90;;;;;;5067947;28;19984;-69
2022/11/20 01:29:25;;;;;;;;;;;8.40;99.90;;;;;;5070989;28;19920;-69
2022/11/20 01:31:59;;;;;;;;;;;8.30;99.90;;;;;;5080589;28;20391;-69
2022/11/20 01:34:28;;;;;;;;;;;8.30;99.90;;;;;;5077788;28;19913;-69
2022/11/20 01:36:54;;;;;;;;;;;8.30;99.90;;;;;;5078332;28;19935;-69
2022/11/20 01:39:21;;;;;;;;;;;8.30;99.90;;;;;;5074924;28;20011;-69
2022/11/20 01:44:50;;;;;;;;;;;8.30;99.90;;;;;;5078390;28;19923;-68
2022/11/20 01:47:27;;;;;;;;;;;8.30;99.90;;;;;;5076064;28;19912;-69
2022/11/20 01:50:00;;;;;;;;;;;8.30;99.90;;;;;;5075419;28;19929;-69
2022/11/20 01:52:37;;;;;;;;;;;8.40;99.90;;;;;;5076998;28;19912;-68
2022/11/20 01:55:12;;;;;;;;;;;8.40;99.90;;;;;;5070912;28;19916;-68
2022/11/20 01:57:38;;;;;;;;;;;8.40;99.90;;;;;;5072838;28;19923;-69
2022/11/20 02:00:06;;;;;;;;;;;8.40;99.90;;;;;;5071785;28;19974;-69
2022/11/20 02:02:32;;;;;;;;;;;8.40;99.90;;;;;;5072078;28;19920;-69
2022/11/20 02:05:00;;;;;;;;;;;8.40;99.90;;;;;;5072121;28;19936;-69
2022/11/20 02:07:29;;;;;;;;;;;8.40;99.90;;;;;;5069492;28;19920;-68
2022/11/20 02:09:54;;;;;;;;;;;8.50;99.90;;;;;;5071174;28;19924;-69
2022/11/20 02:15:08;;;;;;;;;;;8.40;99.90;;;;;;5090656;28;19919;-69
2022/11/20 02:17:37;;;;;;;;;;;8.40;99.90;;;;;;5092403;28;19908;-69
2022/11/20 02:20:04;;;;;;;;;;;8.40;99.90;;;;;;5081107;28;19913;-69
2022/11/20 02:22:52;;;;;;;;;;;8.40;99.90;;;;;;5080073;28;19924;-69
2022/11/20 02:25:19;;;;;;;;;;;8.40;99.90;;;;;;5080413;28;19952;-67
2022/11/20 02:27:48;;;;;;;;;;;8.50;99.90;;;;;;5073259;28;19962;-68
2022/11/20 02:30:16;;;;;;;;;;;8.50;99.90;;;;;;5070311;28;20007;-68
2022/11/20 02:33:02;;;;;;;;;;;8.40;99.90;;;;;;5071945;28;19963;-68
2022/11/20 02:35:41;;;;;;;;;;;8.40;99.90;;;;;;5069994;28;19984;-68
2022/11/20 02:38:07;;;;;;;;;;;8.40;99.90;;;;;;5070458;28;19913;-68
2022/11/20 02:40:33;;;;;;;;;;;8.40;99.90;;;;;;5076562;28;20017;-68
2022/11/20 02:42:59;;;;;;;;;;;8.30;99.90;;;;;;5071980;28;19919;-68
2022/11/20 02:45:24;;;;;;;;;;;8.40;99.90;;;;;;5070151;28;19913;-69
2022/11/20 02:48:15;;;;;;;;;;;8.40;99.90;;;;;;5069371;28;19916;-68
2022/11/20 02:50:53;;;;;;;;;;;8.40;99.90;;;;;;5070259;28;19912;-69
2022/11/20 02:56:15;;;;;;;;;;;8.30;99.90;;;;;;5054554;28;20196;-69
2022/11/20 02:58:40;;;;;;;;;;;8.30;99.90;;;;;;5071493;28;19934;-68
2022/11/20 03:01:09;;;;;;;;;;;8.40;99.90;;;;;;5074630;28;19917;-69
2022/11/20 03:03:35;;;;;;;;;;;8.40;99.90;;;;;;5071076;28;20011;-69
2022/11/20 03:06:01;;;;;;;;;;;8.40;99.90;;;;;;5080043;28;19975;-69
2022/11/20 03:08:26;;;;;;;;;;;8.40;99.90;;;;;;5076795;28;19924;-68
2022/11/20 03:10:52;;;;;;;;;;;8.40;99.90;;;;;;5081211;28;20282;-68
2022/11/20 03:13:18;;;;;;;;;;;8.40;99.90;;;;;;5080346;28;19912;-69
2022/11/20 03:15:43;;;;;;;;;;;8.30;99.90;;;;;;5078063;28;20347;-69
2022/11/20 03:18:09;;;;;;;;;;;8.30;99.90;;;;;;5079989;28;19913;-69
2022/11/20 03:20:35;;;;;;;;;;;8.30;99.90;;;;;;5080392;28;20091;-67
2022/11/20 03:23:01;;;;;;;;;;;8.40;99.90;;;;;;5076712;28;19954;-69
2022/11/20 03:25:27;;;;;;;;;;;8.40;99.90;;;;;;5077033;28;19913;-68
2022/11/20 03:27:53;;;;;;;;;;;8.40;99.90;;;;;;5089681;28;19924;-69
2022/11/20 03:30:19;;;;;;;;;;;8.50;99.90;;;;;;5077961;28;19916;-68
2022/11/20 03:32:45;;;;;;;;;;;8.50;99.90;;;;;;5077445;28;19919;-68
2022/11/20 03:35:11;;;;;;;;;;;8.50;99.90;;;;;;5073292;28;20304;-68
2022/11/20 03:37:37;;;;;;;;;;;8.40;99.90;;;;;;5065382;28;19916;-69
2022/11/20 03:40:03;;;;;;;;;;;8.40;99.90;;;;;;5062976;28;19913;-69
2022/11/20 03:42:47;;;;;;;;;;;8.40;99.90;;;;;;5065776;28;19920;-69
2022/11/20 03:45:14;;;;;;;;;;;8.50;99.90;;;;;;5066845;28;19913;-69
2022/11/20 03:47:58;;;;;;;;;;;8.50;99.90;;;;;;5056438;28;19951;-69
2022/11/20 03:50:38;;;;;;;;;;;8.50;99.90;;;;;;5066939;28;19924;-69
2022/11/20 03:53:28;;;;;;;;;;;8.50;99.90;;;;;;5066505;28;19972;-69
2022/11/20 03:59:38;;;;;;;;;;;8.50;99.90;;;;;;4997143;28;19914;-69
2022/11/20 04:02:18;;;;;;;;;;;8.50;99.90;;;;;;5004973;28;19927;-69
2022/11/20 04:05:03;;;;;;;;;;;8.50;99.90;;;;;;5067965;28;19966;-69
2022/11/20 04:07:42;;;;;;;;;;;8.50;99.90;;;;;;5090284;28;19912;-69
2022/11/20 04:10:29;;;;;;;;;;;8.60;99.90;;;;;;5070247;28;20023;-69
2022/11/20 04:12:58;;;;;;;;;;;8.60;99.90;;;;;;5067998;28;20279;-69
2022/11/20 04:15:26;;;;;;;;;;;8.60;99.90;;;;;;5063946;28;19951;-68
2022/11/20 04:17:56;;;;;;;;;;;8.70;99.90;;;;;;5065708;28;19939;-68
2022/11/20 04:20:21;;;;;;;;;;;8.70;99.90;;;;;;5069930;28;19913;-70
2022/11/20 04:22:56;;;;;;;;;;;8.70;99.90;;;;;;5067591;28;19920;-69
2022/11/20 04:25:30;;;;;;;;;;;8.70;99.90;;;;;;5072877;28;19912;-68
2022/11/20 04:27:56;;;;;;;;;;;8.80;99.90;;;;;;5069010;28;19964;-68
2022/11/20 04:30:21;;;;;;;;;;;8.80;99.90;;;;;;5063187;28;19913;-69
2022/11/20 04:32:47;;;;;;;;;;;8.90;99.90;;;;;;5056938;28;20563;-69
2022/11/20 04:35:16;;;;;;;;;;;8.90;99.90;;;;;;5061879;28;19913;-68
2022/11/20 04:37:41;;;;;;;;;;;8.90;99.90;;;;;;5061702;28;20570;-68
2022/11/20 04:40:10;;;;;;;;;;;8.80;99.90;;;;;;5069037;28;19954;-67
2022/11/20 04:42:36;;;;;;;;;;;8.80;99.90;;;;;;5064888;28;19928;-66
2022/11/20 04:45:01;;;;;;;;;;;8.90;99.90;;;;;;5064795;28;19913;-68
2022/11/20 04:47:27;;;;;;;;;;;8.90;99.90;;;;;;5065112;28;19917;-68
2022/11/20 04:49:53;;;;;;;;;;;8.90;99.90;;;;;;5063306;28;19970;-68
2022/11/20 04:52:19;;;;;;;;;;;9.00;99.90;;;;;;5066258;28;19913;-68
2022/11/20 04:54:46;;;;;;;;;;;9.00;99.90;;;;;;5065197;28;20289;-68
2022/11/20 04:57:12;;;;;;;;;;;9.10;99.90;;;;;;5067465;28;20035;-68
2022/11/20 04:59:38;;;;;;;;;;;9.10;99.90;;;;;;5067352;28;19913;-69
2022/11/20 05:02:07;;;;;;;;;;;9.20;99.90;;;;;;5068100;28;20569;-69
2022/11/20 05:04:32;;;;;;;;;;;9.10;99.90;;;;;;5064023;28;19928;-69
2022/11/20 05:06:58;;;;;;;;;;;9.10;99.90;;;;;;5071482;28;19932;-69
2022/11/20 05:09:24;;;;;;;;;;;9.10;99.90;;;;;;5065070;28;20018;-68
2022/11/20 05:11:49;;;;;;;;;;;9.20;99.90;;;;;;5066519;28;19912;-69
2022/11/20 05:14:15;;;;;;;;;;;9.20;99.90;;;;;;5064201;28;19917;-69
2022/11/20 05:16:41;;;;;;;;;;;9.10;99.90;;;;;;5068590;28;19999;-69
2022/11/20 05:19:07;;;;;;;;;;;9.20;99.90;;;;;;5066369;28;19912;-68
2022/11/20 05:21:33;;;;;;;;;;;9.20;99.90;;;;;;5066935;28;19962;-69
2022/11/20 05:23:59;;;;;;;;;;;9.20;99.90;;;;;;5063641;28;20447;-69
2022/11/20 05:26:24;;;;;;;;;;;9.10;99.90;;;;;;5064804;28;19920;-69
2022/11/20 05:28:51;;;;;;;;;;;9.20;99.90;;;;;;5066626;28;19943;-69
2022/11/20 05:31:21;;;;;;;;;;;9.20;99.90;;;;;;5071912;28;19951;-68
2022/11/20 05:33:47;;;;;;;;;;;9.20;99.90;;;;;;5082606;28;19913;-69
2022/11/20 05:36:14;;;;;;;;;;;9.10;99.90;;;;;;5069799;28;19917;-69
2022/11/20 05:38:40;;;;;;;;;;;9.20;99.90;;;;;;5069728;28;19916;-69
2022/11/20 05:41:12;;;;;;;;;;;9.20;99.90;;;;;;5070126;28;20081;-68
2022/11/20 05:43:38;;;;;;;;;;;9.20;99.90;;;;;;5070313;28;19913;-67
2022/11/20 05:46:05;;;;;;;;;;;9.30;99.90;;;;;;5068842;28;19920;-68
2022/11/20 05:48:31;;;;;;;;;;;9.30;99.90;;;;;;5071193;28;19920;-68
2022/11/20 05:50:58;;;;;;;;;;;9.30;99.90;;;;;;5070636;28;19912;-69
2022/11/20 05:53:31;;;;;;;;;;;9.40;99.90;;;;;;5072237;28;19913;-68
2022/11/20 05:55:58;;;;;;;;;;;9.40;99.90;;;;;;5072066;28;19913;-69
2022/11/20 05:58:24;;;;;;;;;;;9.40;99.90;;;;;;5081590;28;19912;-69
2022/11/20 06:00:50;;;;;;;;;;;9.40;99.90;;;;;;5069445;28;19912;-68
2022/11/20 06:03:16;;;;;;;;;;;9.40;99.90;;;;;;5071998;28;19925;-67
2022/11/20 06:05:44;;;;;;;;;;;9.30;99.90;;;;;;5070546;28;19916;-69
2022/11/20 06:08:10;;;;;;;;;;;9.30;99.90;;;;;;5071639;28;19924;-69
2022/11/20 06:10:38;;;;;;;;;;;9.30;99.90;;;;;;5067622;28;19927;-69
2022/11/20 06:13:04;;;;;;;;;;;9.30;99.90;;;;;;5070170;28;19931;-69
2022/11/20 06:15:30;;;;;;;;;;;9.20;99.90;;;;;;5070283;28;19913;-69
2022/11/20 06:17:56;;;;;;;;;;;9.20;99.90;;;;;;5072118;28;19997;-69
2022/11/20 06:20:24;;;;;;;;;;;9.10;99.90;;;;;;5074989;28;19963;-69
2022/11/20 06:22:51;;;;;;;;;;;9.10;99.90;;;;;;5078436;28;19943;-68
2022/11/20 06:25:22;;;;;;;;;;;9.10;99.90;;;;;;5081075;28;19912;-69
2022/11/20 06:27:48;;;;;;;;;;;9.00;99.90;;;;;;5071167;28;19971;-69
2022/11/20 06:30:17;;;;;;;;;;;9.10;99.90;;;;;;5083212;28;19913;-68
2022/11/20 06:32:43;;;;;;;;;;;9.10;99.90;;;;;;5075923;28;19916;-68
2022/11/20 06:35:09;;;;;;;;;;;9.10;99.90;;;;;;5081628;28;19913;-69
2022/11/20 06:37:34;;;;;;;;;;;9.10;99.90;;;;;;5068646;28;19912;-68
2022/11/20 06:40:00;;;;;;;;;;;9.10;99.90;;;;;;5079268;28;19913;-69
2022/11/20 06:42:26;;;;;;;;;;;9.10;99.90;;;;;;5082425;28;19960;-67
2022/11/20 06:44:51;;;;;;;;;;;9.10;99.90;;;;;;5078807;28;20290;-68
2022/11/20 06:47:19;;;;;;;;;;;9.10;99.90;;;;;;5079737;28;19913;-66
2022/11/20 06:49:48;;;;;;;;;;;9.10;99.90;;;;;;5081816;28;20367;-68
2022/11/20 06:52:16;;;;;;;;;;;9.10;99.90;;;;;;5080683;28;19912;-67
2022/11/20 06:54:42;;;;;;;;;;;9.10;99.90;;;;;;5080716;28;19912;-68
2022/11/20 06:57:08;;;;;;;;;;;9.10;99.90;;;;;;5079403;28;20338;-69
2022/11/20 06:59:34;;;;;;;;;;;9.10;99.90;;;;;;5081528;28;19915;-69
2022/11/20 07:01:59;;;;;;;;;;;9.10;99.90;;;;;;5079600;28;19916;-68
2022/11/20 07:04:28;;;;;;;;;;;9.10;99.90;;;;;;5080810;28;19964;-68
2022/11/20 07:06:54;;;;;;;;;;;9.20;99.90;;;;;;5080064;28;19913;-69
2022/11/20 07:09:19;;;;;;;;;;;9.20;99.90;;;;;;5079325;28;19962;-69
2022/11/20 07:11:48;;;;;;;;;;;9.20;99.90;;;;;;5093240;28;19923;-68
2022/11/20 07:14:13;;;;;;;;;;;9.20;99.90;;;;;;5083447;28;19912;-68
2022/11/20 07:16:39;;;;;;;;;;;9.30;99.90;;;;;;5089657;28;20409;-69
2022/11/20 07:19:08;;;;;;;;;;;9.30;99.90;;;;;;5071801;28;19912;-68
2022/11/20 07:21:34;;;;;;;;;;;9.30;99.90;;;;;;5072889;28;19916;-71
2022/11/20 07:23:59;;;;;;;;;;;9.30;99.90;;;;;;5079623;28;20372;-70
2022/11/20 07:26:25;;;;;;;;;;;9.40;99.90;;;;;;5083363;28;19909;-71
2022/11/20 07:28:54;;;;;;;;;;;9.40;99.90;;;;;;5081424;28;19924;-70
2022/11/20 07:31:20;;;;;;;;;;;9.40;99.90;;;;;;5087145;28;20003;-70
2022/11/20 07:33:45;;;;;;;;;;;9.50;99.90;;;;;;5078129;28;19944;-70
2022/11/20 07:36:11;;;;;;;;;;;9.40;99.90;;;;;;5079955;28;20401;-70
2022/11/20 07:38:37;;;;;;;;;;;9.50;99.90;;;;;;5084628;28;19915;-71
2022/11/20 07:41:03;;;;;;;;;;;9.50;99.90;;;;;;5084087;28;19912;-70
2022/11/20 07:43:29;;;;;;;;;;;9.50;99.90;;;;;;5082734;28;19943;-71
2022/11/20 07:45:56;;;;;;;;;;;9.50;99.90;;;;;;5076874;28;19917;-71
2022/11/20 07:48:22;;;;;;;;;;;9.60;99.90;;;;;;5079055;28;20439;-70
2022/11/20 07:50:47;;;;;;;;;;;9.60;99.90;;;;;;5074041;28;19912;-71
2022/11/20 07:53:13;;;;;;;;;;;9.60;99.90;;;;;;5076975;28;19913;-71
2022/11/20 07:55:39;;;;;;;;;;;9.70;99.90;;;;;;5079214;28;19913;-70
2022/11/20 07:58:05;;;;;;;;;;;9.70;99.90;;;;;;5078588;28;19912;-72
2022/11/20 08:00:31;;;;;;;;;;;9.80;99.90;;;;;;5074682;28;19917;-70
2022/11/20 08:02:56;;;;;;;;;;;9.80;99.90;;;;;;5077756;28;20281;-70
2022/11/20 08:05:23;;;;;;;;;;;9.70;99.90;;;;;;5077612;28;20386;-70
2022/11/20 08:07:49;;;;;;;;;;;9.70;99.90;;;;;;5077633;28;19913;-71
2022/11/20 08:10:16;;;;;;;;;;;9.80;99.90;;;;;;5077180;28;19934;-71
2022/11/20 08:15:35;;;;;;;;;;;9.70;99.90;;;;;;5070706;28;19919;-70
2022/11/20 08:18:06;;;;;;;;;;;9.70;99.90;;;;;;5081502;28;19933;-70
2022/11/20 08:20:32;;;;;;;;;;;9.70;99.90;;;;;;5081485;28;19912;-70
2022/11/20 08:23:02;;;;;;;;;;;9.70;99.90;;;;;;5077824;28;19912;-70
2022/11/20 08:25:30;;;;;;;;;;;9.70;99.90;;;;;;5074550;28;19952;-70
2022/11/20 08:27:57;;;;;;;;;;;9.70;99.90;;;;;;5076573;28;19920;-70
2022/11/20 08:30:23;;;;;;;;;;;9.80;99.90;;;;;;5072372;28;19935;-70
2022/11/20 08:32:49;;;;;;;;;;;9.80;99.90;;;;;;5076518;28;19912;-70
2022/11/20 08:35:14;;;;;;;;;;;9.90;99.90;;;;;;5072397;28;19997;-70
2022/11/20 08:37:41;;;;;;;;;;;9.80;99.90;;;;;;5079334;28;20465;-70
2022/11/20 08:40:11;;;;;;;;;;;9.80;99.90;;;;;;5073153;28;20339;-70
2022/11/20 08:42:36;;;;;;;;;;;9.70;99.90;;;;;;5078013;28;19938;-70
2022/11/20 08:45:03;;;;;;;;;;;9.60;99.90;;;;;;5077143;28;19947;-70
2022/11/20 08:47:28;;;;;;;;;;;9.60;99.90;;;;;;5083451;28;19940;-70
2022/11/20 08:49:54;;;;;;;;;;;9.70;99.90;;;;;;5093318;28;19912;-70
2022/11/20 08:52:20;;;;;;;;;;;9.80;99.90;;;;;;5084931;28;19984;-70
2022/11/20 08:54:46;;;;;;;;;;;9.80;99.90;;;;;;5084351;28;19909;-70
2022/11/20 08:57:12;;;;;;;;;;;9.80;99.90;;;;;;5078556;28;19913;-70
2022/11/20 08:59:37;;;;;;;;;;;9.70;99.90;;;;;;5075646;28;19923;-71
2022/11/20 09:02:03;;;;;;;;;;;9.70;99.90;;;;;;5084562;28;19934;-71
2022/11/20 09:04:30;;;;;;;;;;;9.80;99.90;;;;;;5083942;28;19912;-70
2022/11/20 09:06:56;;;;;;;;;;;9.90;99.90;;;;;;5089440;28;19936;-70
2022/11/20 09:09:21;;;;;;;;;;;10.00;99.90;;;;;;5080810;28;19920;-70
2022/11/20 09:11:49;;;;;;;;;;;10.00;99.90;;;;;;5084859;28;19912;-70
2022/11/20 09:14:15;;;;;;;;;;;10.00;99.90;;;;;;5081436;28;19958;-70
2022/11/20 09:16:41;;;;;;;;;;;10.00;99.90;;;;;;5083518;28;19912;-68
2022/11/20 09:19:06;;;;;;;;;;;10.10;99.90;;;;;;5080259;28;20031;-69
2022/11/20 09:21:32;;;;;;;;;;;10.10;99.90;;;;;;5078468;28;20431;-70
2022/11/20 09:23:58;;;;;;;;;;;10.20;99.90;;;;;;5076494;28;20069;-70
2022/11/20 09:26:55;;;;;;;;;;;10.30;99.90;;;;;;5077105;28;19926;-70
2022/11/20 09:29:44;;;;;;;;;;;10.30;99.90;;;;;;5081973;28;19947;-68
2022/11/20 09:32:30;;;;;;;;;;;10.20;99.90;;;;;;5081300;28;19912;-70
2022/11/20 09:45:17;;;;;;;;;;;10.40;99.90;;;;;;5004706;28;19924;-69
2022/11/20 09:48:02;;;;;;;;;;;;;;;;;;;;;
2022/11/20 09:53:49;;;;;;;;;;;10.60;99.90;;;;;;4996997;28;19961;-69
2022/11/20 09:56:17;;;;;;;;;;;10.60;99.90;;;;;;5066299;28;19912;-70
2022/11/20 09:59:17;;;;;;;;;;;;;;;;;;;;;
2022/11/20 10:01:45;;;;;;;;;;;10.60;99.90;;;;;;5081490;28;19984;-70
2022/11/20 10:10:15;;;;;;;;;;;10.70;99.90;;;;;;5084824;28;19932;-70
2022/11/20 10:13:00;;;;;;;;;;;10.70;99.90;;;;;;5081621;28;20451;-70
2022/11/20 10:15:50;;;;;;;;;;;10.80;99.90;;;;;;5081827;28;19918;-69
2022/11/20 10:18:19;;;;;;;;;;;10.80;99.90;;;;;;5080803;28;19917;-70
2022/11/20 10:21:03;;;;;;;;;;;10.80;99.90;;;;;;5080362;28;19966;-69
2022/11/20 10:23:29;;;;;;;;;;;10.80;99.90;;;;;;5078478;28;19913;-70
2022/11/20 10:26:35;;;;;;;;;;;;;;;;;;;;;
2022/11/20 10:32:30;;;;;;;;;;;11.00;99.90;;;;;;5070788;28;19958;-70
2022/11/20 10:38:49;;;;;;;;;;;11.30;99.90;;;;;;5045193;28;19928;-69
2022/11/20 10:47:30;;;;;;;;;;;11.40;99.90;;;;;;5079878;28;20523;-69
2022/11/20 10:53:39;;;;;;;;;;;11.40;99.90;;;;;;5080392;28;19919;-69
2022/11/20 10:56:21;;;;;;;;;;;11.30;99.90;;;;;;5093638;28;20392;-69
2022/11/20 10:58:53;;;;;;;;;;;11.30;99.90;;;;;;5081844;28;19916;-70
2022/11/20 11:04:35;;;;;;;;;;;11.20;99.90;;;;;;5036586;28;19961;-69
2022/11/20 11:10:20;;;;;;;;;;;11.40;99.90;;;;;;5059827;28;19916;-70
2022/11/20 11:13:17;;;;;;;;;;;11.30;99.90;;;;;;5101315;28;19912;-69
2022/11/20 11:15:43;;;;;;;;;;;11.10;99.90;;;;;;5070874;28;19912;-69
2022/11/20 11:18:09;;;;;;;;;;;11.20;99.90;;;;;;5101435;28;19916;-69
2022/11/20 11:20:36;;;;;;;;;;;11.20;99.90;;;;;;5099883;28;20003;-70
2022/11/20 11:23:36;;;;;;;;;;;11.20;99.90;;;;;;5099753;28;19920;-69
2022/11/20 11:26:03;;;;;;;;;;;11.10;99.90;;;;;;5105744;28;19991;-69
2022/11/20 11:28:29;;;;;;;;;;;11.10;99.90;;;;;;5078348;28;19916;-69
2022/11/20 11:31:05;;;;;;;;;;;11.00;99.90;;;;;;5096479;28;19923;-68
2022/11/20 11:33:55;;;;;;;;;;;11.10;99.90;;;;;;5102141;28;19922;-69
2022/11/20 11:36:29;;;;;;;;;;;11.20;99.90;;;;;;5068890;28;19994;-69
2022/11/20 11:39:24;;;;;;;;;;;11.40;99.90;;;;;;5082050;28;19912;-70
2022/11/20 11:41:53;;;;;;;;;;;11.30;99.90;;;;;;5115982;28;19912;-68
2022/11/20 11:50:27;;;;;;;;;;;11.40;99.90;;;;;;5076647;28;19919;-69
2022/11/20 11:52:58;;;;;;;;;;;11.40;99.90;;;;;;5111921;28;19957;-69
2022/11/20 11:55:30;;;;;;;;;;;11.40;99.90;;;;;;5083205;28;20451;-69
2022/11/20 11:58:02;;;;;;;;;;;11.50;99.90;;;;;;5098781;28;19912;-70
2022/11/20 12:00:28;;;;;;;;;;;11.50;99.90;;;;;;5104359;28;19919;-69
2022/11/20 12:02:57;;;;;;;;;;;11.40;99.90;;;;;;5097254;28;19912;-69
2022/11/20 12:05:26;;;;;;;;;;;11.30;99.90;;;;;;5077727;28;19975;-69
2022/11/20 12:07:52;;;;;;;;;;;11.40;99.90;;;;;;5103510;28;19912;-69
2022/11/20 12:10:34;;;;;;;;;;;11.50;99.90;;;;;;5118402;27;19919;-69
2022/11/20 12:13:20;;;;;;;;;;;11.50;99.90;;;;;;5104946;28;19912;-69
2022/11/20 12:15:47;;;;;;;;;;;11.60;99.90;;;;;;5102312;28;19931;-69
2022/11/20 12:18:18;;;;;;;;;;;11.60;99.90;;;;;;5107096;28;19943;-69
2022/11/20 12:20:59;;;;;;;;;;;11.50;99.90;;;;;;5107241;28;19938;-69
2022/11/20 12:23:38;;;;;;;;;;;11.40;99.90;;;;;;5100901;28;20007;-69
2022/11/20 12:26:10;;;;;;;;;;;11.40;99.90;;;;;;5084788;28;19926;-69
2022/11/20 12:28:38;;;;;;;;;;;11.40;99.90;;;;;;5086840;28;19916;-69
2022/11/20 12:31:13;;;;;;;;;;;11.50;99.90;;;;;;5102557;28;19930;-69
2022/11/20 12:33:42;;;;;;;;;;;11.40;99.90;;;;;;5121135;27;19927;-70
2022/11/20 12:36:17;;;;;;;;;;;11.40;99.90;;;;;;5106303;28;19918;-69
2022/11/20 12:39:21;;;;;;;;;;;11.30;99.90;;;;;;5105092;28;20353;-70
2022/11/20 12:47:31;;;;;;;;;;;11.50;99.90;;;;;;5100955;28;19965;-70
2022/11/20 12:50:06;;;;;;;;;;;11.40;99.90;;;;;;5120678;28;19991;-70
2022/11/20 12:52:56;;;;;;;;;;;11.50;99.90;;;;;;5087567;28;19920;-70
2022/11/20 12:55:40;;;;;;;;;;;11.50;99.90;;;;;;5093901;28;19920;-70
2022/11/20 12:58:23;;;;;;;;;;;11.50;99.90;;;;;;5111079;28;20293;-69
2022/11/20 13:01:04;;;;;;;;;;;11.50;99.90;;;;;;5093840;28;19934;-70
2022/11/20 13:03:43;;;;;;;;;;;11.40;99.90;;;;;;5122315;27;19912;-70
2022/11/20 13:06:15;;;;;;;;;;;11.30;99.90;;;;;;5083144;28;19912;-70
2022/11/20 13:08:42;;;;;;;;;;;11.20;99.90;;;;;;5102474;28;20014;-70
2022/11/20 13:11:13;;;;;;;;;;;11.30;99.90;;;;;;5095073;28;20415;-70
2022/11/20 13:13:56;;;;;;;;;;;11.40;99.90;;;;;;5093872;28;20370;-70
2022/11/20 13:16:31;;;;;;;;;;;11.30;99.90;;;;;;5098731;28;19912;-70
2022/11/20 13:19:01;;;;;;;;;;;11.30;99.90;;;;;;5106175;28;19916;-70
2022/11/20 13:21:37;;;;;;;;;;;11.40;99.90;;;;;;5108842;28;19999;-70
2022/11/20 13:24:07;;;;;;;;;;;11.30;99.90;;;;;;5116333;28;19918;-70
2022/11/20 13:26:34;;;;;;;;;;;11.30;99.90;;;;;;5112197;28;19919;-70
2022/11/20 13:29:03;;;;;;;;;;;11.20;99.90;;;;;;5097282;28;19916;-70
2022/11/20 13:31:33;;;;;;;;;;;11.20;99.90;;;;;;5099157;28;19919;-70
2022/11/20 13:34:00;;;;;;;;;;;11.30;99.90;;;;;;5102750;28;19908;-70
2022/11/20 13:36:27;;;;;;;;;;;11.40;99.90;;;;;;5081606;28;19916;-70
2022/11/20 13:38:54;;;;;;;;;;;11.40;99.90;;;;;;5089568;28;19924;-70
2022/11/20 13:41:37;;;;;;;;;;;11.40;99.90;;;;;;5114140;28;19908;-70
2022/11/20 13:44:09;;;;;;;;;;;11.40;99.90;;;;;;5092398;28;19912;-71
2022/11/20 13:46:39;;;;;;;;;;;11.50;99.90;;;;;;5102576;28;19912;-71
2022/11/20 13:49:09;;;;;;;;;;;11.40;99.90;;;;;;5086173;28;19923;-70
2022/11/20 13:51:44;;;;;;;;;;;11.30;99.90;;;;;;5110418;28;19943;-70
2022/11/20 13:54:17;;;;;;;;;;;11.30;99.90;;;;;;5124441;28;20434;-69
2022/11/20 13:56:50;;;;;;;;;;;11.40;99.90;;;;;;5096446;28;19923;-70
2022/11/20 13:59:34;;;;;;;;;;;11.40;99.90;;;;;;5106630;28;19912;-70
2022/11/20 14:02:00;;;;;;;;;;;11.50;99.90;;;;;;5110816;28;19919;-70
2022/11/20 14:04:28;;;;;;;;;;;11.40;99.90;;;;;;5118017;28;19927;-70
2022/11/20 14:06:54;;;;;;;;;;;11.40;99.90;;;;;;5102305;28;20400;-69
2022/11/20 14:09:35;;;;;;;;;;;11.40;99.90;;;;;;5083759;28;19912;-69
2022/11/20 14:12:14;;;;;;;;;;;11.40;99.90;;;;;;5107716;28;19912;-70
2022/11/20 14:14:47;;;;;;;;;;;11.40;99.90;;;;;;5080561;28;20332;-70
2022/11/20 14:17:20;;;;;;;;;;;11.40;99.90;;;;;;5104713;28;19909;-71
2022/11/20 14:19:47;;;;;;;;;;;11.50;99.90;;;;;;5103445;28;20235;-70
2022/11/20 14:22:20;;;;;;;;;;;11.50;99.90;;;;;;5081322;28;19913;-70
2022/11/20 14:24:47;;;;;;;;;;;11.60;99.90;;;;;;5086856;28;20392;-70
2022/11/20 14:27:20;;;;;;;;;;;11.50;99.90;;;;;;5126237;27;19961;-71
2022/11/20 14:29:47;;;;;;;;;;;11.60;99.90;;;;;;5091416;27;20322;-71
2022/11/20 14:32:21;;;;;;;;;;;11.60;99.90;;;;;;5115803;28;19975;-70
2022/11/20 14:34:48;;;;;;;;;;;11.50;99.90;;;;;;5094427;28;19950;-70
2022/11/20 14:37:19;;;;;;;;;;;11.50;99.90;;;;;;5085958;28;20191;-71
2022/11/20 14:40:02;;;;;;;;;;;11.50;99.90;;;;;;5089503;28;19932;-71
2022/11/20 14:42:28;;;;;;;;;;;11.60;99.90;;;;;;5123591;27;19912;-70
2022/11/20 14:44:58;;;;;;;;;;;11.50;99.90;;;;;;5129797;27;19995;-70
2022/11/20 14:47:27;;;;;;;;;;;11.40;99.90;;;;;;5139166;27;19907;-69
2022/11/20 14:49:54;;;;;;;;;;;11.30;99.90;;;;;;5123070;28;19912;-69
2022/11/20 14:52:24;;;;;;;;;;;11.30;99.90;;;;;;5094650;28;19974;-69
2022/11/20 14:54:54;;;;;;;;;;;11.20;99.90;;;;;;5108700;28;20420;-70
2022/11/20 14:57:21;;;;;;;;;;;11.10;99.90;;;;;;5104720;28;19916;-71
2022/11/20 14:59:47;;;;;;;;;;;11.00;99.90;;;;;;5121283;28;19975;-71
2022/11/20 15:02:13;;;;;;;;;;;11.00;99.90;;;;;;5106989;28;19956;-70
2022/11/20 15:05:04;;;;;;;;;;;10.90;99.90;;;;;;5104637;28;19954;-69
2022/11/20 15:07:31;;;;;;;;;;;10.90;99.90;;;;;;5089080;28;20512;-69
2022/11/20 15:10:05;;;;;;;;;;;10.90;99.90;;;;;;5093130;28;19912;-71
2022/11/20 15:12:32;;;;;;;;;;;10.90;99.90;;;;;;5091858;28;19927;-70
2022/11/20 15:14:58;;;;;;;;;;;10.90;99.90;;;;;;5103899;28;19911;-69
2022/11/20 15:17:24;;;;;;;;;;;10.80;99.90;;;;;;5098736;28;19915;-70
2022/11/20 15:19:50;;;;;;;;;;;10.70;99.90;;;;;;5104956;28;19975;-69
2022/11/20 15:22:16;;;;;;;;;;;10.70;99.90;;;;;;5116776;28;19931;-69
2022/11/20 15:24:42;;;;;;;;;;;10.70;99.90;;;;;;5106804;28;19908;-69
2022/11/20 15:30:01;;;;;;;;;;;10.70;99.90;;;;;;5098166;28;19923;-69
2022/11/20 15:32:27;;;;;;;;;;;10.60;99.90;;;;;;5099892;28;20381;-69
2022/11/20 15:34:52;;;;;;;;;;;10.50;99.90;;;;;;5099335;28;19911;-70
2022/11/20 15:37:18;;;;;;;;;;;10.40;99.90;;;;;;5099753;28;19916;-69
2022/11/20 15:39:44;;;;;;;;;;;10.40;99.90;;;;;;5100162;28;20362;-69
2022/11/20 15:42:09;;;;;;;;;;;10.40;99.90;;;;;;5098055;28;19943;-70
2022/11/20 15:44:35;;;;;;;;;;;10.40;99.90;;;;;;5101056;28;19924;-69
2022/11/20 15:47:01;;;;;;;;;;;10.40;99.90;;;;;;5110559;28;19919;-70
2022/11/20 15:49:26;;;;;;;;;;;10.40;99.90;;;;;;5078070;28;19923;-69
2022/11/20 15:51:53;;;;;;;;;;;10.40;99.90;;;;;;5096451;28;19908;-69
2022/11/20 15:54:21;;;;;;;;;;;10.30;99.90;;;;;;5098169;28;19918;-69
2022/11/20 15:56:47;;;;;;;;;;;10.30;99.90;;;;;;5078634;28;19912;-69